createdAt,value
2018-04-16T00:00:32.782Z,7.57
2018-04-16T00:02:59.230Z,7.27
2018-04-16T00:05:25.633Z,7.80
2018-04-16T00:07:51.980Z,7.20
2018-04-16T00:10:18.381Z,7.03
2018-04-16T00:12:44.793Z,7.23
2018-04-16T00:15:11.125Z,7.70
2018-04-16T00:17:37.533Z,7.73
2018-04-16T00:20:04.009Z,7.43
2018-04-16T00:22:30.422Z,7.63
2018-04-16T00:24:56.805Z,7.90
2018-04-16T00:27:23.161Z,7.73
2018-04-16T00:29:49.554Z,7.23
2018-04-16T00:32:21.777Z,7.73
2018-04-16T00:34:54.026Z,7.37
2018-04-16T00:37:26.499Z,7.40
2018-04-16T00:39:58.838Z,7.40
2018-04-16T00:42:31.330Z,7.97
2018-04-16T00:45:03.917Z,7.73
2018-04-16T00:47:36.323Z,8.17
2018-04-16T01:03:37.280Z,8.33
2018-04-16T01:06:09.810Z,8.70
2018-04-16T01:08:42.250Z,9.17
2018-04-16T01:11:14.631Z,9.90
2018-04-16T01:13:47.129Z,10.47
2018-04-16T01:16:19.590Z,10.23
2018-04-16T01:32:18.571Z,12.90
2018-04-16T01:34:50.878Z,13.20
2018-04-16T01:37:23.235Z,13.03
2018-04-16T01:39:55.574Z,13.47
2018-04-16T01:42:27.806Z,14.10
2018-04-16T01:45:00.249Z,14.23
2018-04-16T01:47:32.690Z,14.83
2018-04-16T01:50:05.054Z,14.63
2018-04-16T01:52:37.458Z,14.63
2018-04-16T01:55:09.909Z,14.83
2018-04-16T01:57:42.385Z,14.80
2018-04-16T02:00:14.617Z,14.07
2018-04-16T02:02:47.138Z,14.73
2018-04-16T02:05:19.637Z,15.73
2018-04-16T02:07:51.943Z,14.57
2018-04-16T02:10:24.138Z,15.13
2018-04-16T02:12:56.654Z,13.57
2018-04-16T02:15:28.926Z,14.63
2018-04-16T02:18:01.226Z,15.17
2018-04-16T02:20:33.774Z,14.77
2018-04-16T02:23:06.206Z,14.40
2018-04-16T02:25:38.607Z,14.60
2018-04-16T02:28:10.958Z,15.47
2018-04-16T02:30:43.290Z,16.00
2018-04-16T02:33:15.718Z,16.50
2018-04-16T02:35:48.077Z,15.20
2018-04-16T02:38:21.053Z,15.27
2018-04-16T02:40:53.457Z,15.53
2018-04-16T02:43:25.909Z,15.53
2018-04-16T02:45:58.357Z,15.23
2018-04-16T02:48:30.598Z,16.03
2018-04-16T02:51:02.931Z,15.93
2018-04-16T02:53:35.361Z,15.93
2018-04-16T02:56:07.774Z,16.30
2018-04-16T02:58:40.258Z,15.60
2018-04-16T03:01:12.600Z,16.47
2018-04-16T03:03:45.081Z,17.50
2018-04-16T03:06:17.456Z,16.17
2018-04-16T03:08:49.992Z,17.50
2018-04-16T03:11:22.553Z,17.50
2018-04-16T03:13:54.884Z,16.77
2018-04-16T03:16:27.287Z,17.10
2018-04-16T03:18:59.636Z,18.17
2018-04-16T03:21:32.171Z,17.07
2018-04-16T03:24:04.709Z,16.93
2018-04-16T03:26:37.097Z,17.60
2018-04-16T03:29:09.410Z,17.30
2018-04-16T03:31:41.963Z,16.97
2018-04-16T03:34:14.421Z,16.10
2018-04-16T03:36:46.883Z,15.97
2018-04-16T03:39:19.326Z,13.17
2018-04-16T03:41:51.530Z,13.33
2018-04-16T03:44:23.986Z,12.07
2018-04-16T03:46:56.450Z,12.50
2018-04-16T03:49:28.958Z,11.80
2018-04-16T04:05:17.850Z,12.50
2018-04-16T04:07:44.185Z,11.80
2018-04-16T04:10:10.566Z,12.03
2018-04-16T04:12:36.910Z,11.77
2018-04-16T04:15:03.265Z,12.47
2018-04-16T04:17:29.682Z,12.00
2018-04-16T04:19:56.018Z,11.73
2018-04-16T04:22:34.501Z,11.77
2018-04-16T04:25:13.171Z,12.87
2018-04-16T04:27:51.557Z,12.70
2018-04-16T04:30:28.194Z,15.77
2018-04-16T04:32:54.819Z,15.07
2018-04-16T04:35:21.253Z,16.03
2018-04-16T04:37:47.750Z,15.13
2018-04-16T04:40:14.087Z,16.33
2018-04-16T04:42:40.470Z,17.77
2018-04-16T04:45:06.813Z,17.87
2018-04-16T04:47:33.394Z,17.73
2018-04-16T04:49:59.781Z,16.67
2018-04-16T04:52:26.133Z,18.30
2018-04-16T04:54:52.462Z,20.20
2018-04-16T04:57:18.948Z,19.00
2018-04-16T04:59:45.277Z,19.13
2018-04-16T05:02:11.618Z,18.00
2018-04-16T05:04:37.954Z,18.00
2018-04-16T05:07:04.329Z,18.33
2018-04-16T05:09:30.693Z,17.33
2018-04-16T05:11:57.019Z,18.10
2018-04-16T05:14:23.366Z,17.13
2018-04-16T05:16:50.030Z,17.17
2018-04-16T05:19:16.567Z,16.53
2018-04-16T05:21:42.905Z,16.97
2018-04-16T05:24:09.322Z,17.43
2018-04-16T05:26:35.733Z,16.80
2018-04-16T05:29:02.177Z,16.33
2018-04-16T05:31:28.515Z,16.40
2018-04-16T05:33:54.919Z,15.23
2018-04-16T05:36:21.369Z,17.30
2018-04-16T05:38:47.781Z,15.60
2018-04-16T05:41:14.266Z,15.63
2018-04-16T05:43:40.645Z,15.37
2018-04-16T05:46:07.113Z,13.73
2018-04-16T05:48:33.487Z,14.10
2018-04-16T05:51:00.022Z,13.83
2018-04-16T05:53:26.414Z,14.13
2018-04-16T05:55:52.765Z,13.37
2018-04-16T05:58:19.501Z,13.70
2018-04-16T06:00:45.989Z,13.63
2018-04-16T06:03:12.342Z,14.00
2018-04-16T06:05:38.706Z,13.87
2018-04-16T06:08:05.074Z,13.40
2018-04-16T06:10:31.439Z,14.60
2018-04-16T06:12:57.794Z,13.57
2018-04-16T06:15:24.125Z,14.20
2018-04-16T06:17:50.478Z,14.10
2018-04-16T06:20:16.860Z,15.50
2018-04-16T06:22:43.205Z,15.10
2018-04-16T06:25:09.617Z,13.93
2018-04-16T06:27:35.979Z,13.43
2018-04-16T06:30:02.366Z,13.13
2018-04-16T06:32:28.709Z,12.33
2018-04-16T06:34:55.439Z,11.57
2018-04-16T06:37:22.308Z,11.60
2018-04-16T06:39:48.878Z,14.50
2018-04-16T06:42:15.302Z,11.13
2018-04-16T06:44:41.721Z,10.30
2018-04-16T06:47:08.067Z,11.27
2018-04-16T06:49:34.550Z,11.10
2018-04-16T06:52:01.085Z,11.17
2018-04-16T06:54:27.416Z,11.60
2018-04-16T06:56:53.730Z,10.07
2018-04-16T06:59:20.106Z,10.23
2018-04-16T07:01:46.522Z,9.77
2018-04-16T07:04:12.974Z,12.03
2018-04-16T07:06:39.342Z,10.67
2018-04-16T07:09:05.754Z,11.03
2018-04-16T07:11:32.140Z,10.90
2018-04-16T07:13:58.482Z,9.70
2018-04-16T07:16:24.888Z,10.07
2018-04-16T07:18:51.325Z,9.60
2018-04-16T07:21:17.672Z,9.70
2018-04-16T07:23:44.009Z,9.73
2018-04-16T07:26:10.343Z,8.63
2018-04-16T07:28:36.718Z,9.27
2018-04-16T07:31:03.487Z,9.63
2018-04-16T07:33:29.846Z,9.50
2018-04-16T07:35:56.252Z,9.43
2018-04-16T07:38:22.600Z,8.57
2018-04-16T07:40:48.946Z,9.03
2018-04-16T07:43:15.305Z,8.23
2018-04-16T07:45:41.698Z,9.07
2018-04-16T07:48:08.194Z,8.73
2018-04-16T07:50:34.540Z,8.73
2018-04-16T07:53:00.894Z,9.37
2018-04-16T07:55:27.255Z,9.17
2018-04-16T07:57:53.609Z,8.77
2018-04-16T08:00:20.012Z,8.67
2018-04-16T08:02:46.367Z,8.80
2018-04-16T08:05:12.785Z,8.50
2018-04-16T08:07:39.131Z,8.70
2018-04-16T08:10:05.556Z,8.23
2018-04-16T08:12:31.960Z,7.73
2018-04-16T08:14:58.318Z,8.37
2018-04-16T08:17:24.676Z,8.43
2018-04-16T08:19:51.049Z,8.93
2018-04-16T08:22:17.485Z,8.43
2018-04-16T08:24:43.998Z,7.90
2018-04-16T08:27:10.337Z,7.73
2018-04-16T08:29:36.809Z,8.87
2018-04-16T08:32:03.227Z,7.83
2018-04-16T08:34:29.602Z,8.60
2018-04-16T08:36:55.943Z,8.60
2018-04-16T08:39:22.270Z,8.80
2018-04-16T08:41:48.668Z,8.67
2018-04-16T08:44:14.989Z,8.20
2018-04-16T08:46:41.387Z,8.53
2018-04-16T08:49:07.753Z,8.00
2018-04-16T08:51:34.096Z,8.10
2018-04-16T08:54:00.750Z,8.27
2018-04-16T08:56:27.093Z,7.47
2018-04-16T08:58:53.421Z,8.43
2018-04-16T09:01:19.758Z,8.13
2018-04-16T09:03:46.162Z,7.83
2018-04-16T09:06:12.517Z,7.53
2018-04-16T09:08:38.872Z,7.93
2018-04-16T09:11:05.257Z,7.87
2018-04-16T09:13:31.622Z,7.70
2018-04-16T09:15:57.950Z,7.67
2018-04-16T09:18:24.490Z,8.27
2018-04-16T09:20:50.895Z,7.83
2018-04-16T09:23:17.308Z,6.67
2018-04-16T09:25:43.830Z,8.80
2018-04-16T09:28:10.185Z,8.27
2018-04-16T09:30:36.554Z,8.00
2018-04-16T09:33:02.930Z,7.03
2018-04-16T09:35:29.302Z,6.97
2018-04-16T09:37:55.633Z,7.17
2018-04-16T09:40:22.167Z,9.23
2018-04-16T09:42:48.557Z,8.60
2018-04-16T09:45:15.221Z,7.53
2018-04-16T09:47:41.618Z,6.90
2018-04-16T09:50:07.992Z,7.20
2018-04-16T09:52:34.342Z,6.83
2018-04-16T09:55:00.677Z,7.00
2018-04-16T09:57:27.026Z,6.53
2018-04-16T09:59:53.377Z,6.30
2018-04-16T10:02:24.639Z,6.50
2018-04-16T10:04:51.142Z,7.60
2018-04-16T10:07:17.505Z,6.73
2018-04-16T10:09:43.856Z,6.50
2018-04-16T10:12:10.194Z,5.80
2018-04-16T10:14:36.520Z,6.30
2018-04-16T10:17:02.866Z,6.63
2018-04-16T10:19:29.189Z,7.30
2018-04-16T10:21:55.665Z,6.30
2018-04-16T10:24:22.302Z,6.87
2018-04-16T10:26:49.043Z,7.60
2018-04-16T10:29:15.433Z,6.90
2018-04-16T10:31:41.990Z,6.17
2018-04-16T10:34:08.398Z,6.17
2018-04-16T10:36:35.002Z,6.17
2018-04-16T10:39:01.317Z,6.30
2018-04-16T10:41:27.686Z,5.97
2018-04-16T10:43:54.032Z,6.60
2018-04-16T10:46:20.447Z,5.70
2018-04-16T10:48:46.959Z,5.77
2018-04-16T10:51:13.302Z,5.50
2018-04-16T10:53:39.658Z,5.70
2018-04-16T10:56:06.118Z,5.57
2018-04-16T10:58:32.493Z,6.40
2018-04-16T11:00:58.960Z,6.53
2018-04-16T11:03:25.314Z,5.30
2018-04-16T11:05:51.877Z,5.63
2018-04-16T11:08:18.220Z,5.83
2018-04-16T11:10:44.607Z,5.20
2018-04-16T11:13:10.954Z,5.47
2018-04-16T11:15:37.331Z,5.57
2018-04-16T11:18:03.685Z,5.90
2018-04-16T11:20:30.051Z,5.67
2018-04-16T11:22:56.513Z,5.87
2018-04-16T11:25:22.906Z,5.57
2018-04-16T11:27:49.299Z,4.83
2018-04-16T11:30:15.682Z,5.37
2018-04-16T11:32:42.190Z,5.63
2018-04-16T11:35:08.545Z,4.43
2018-04-16T11:37:35.051Z,5.47
2018-04-16T11:40:01.618Z,4.70
2018-04-16T11:42:27.961Z,5.57
2018-04-16T11:44:54.298Z,5.43
2018-04-16T11:47:20.681Z,5.43
2018-04-16T11:49:47.116Z,5.57
2018-04-16T11:52:13.446Z,5.93
2018-04-16T11:54:39.798Z,5.10
2018-04-16T11:57:06.382Z,5.13
2018-04-16T11:59:32.730Z,4.97
2018-04-16T12:01:59.081Z,5.30
2018-04-16T12:04:25.473Z,4.97
2018-04-16T12:06:51.827Z,5.00
2018-04-16T12:09:18.200Z,4.90
2018-04-16T12:11:44.573Z,5.40
2018-04-16T12:14:10.936Z,4.50
2018-04-16T12:16:37.328Z,5.30
2018-04-16T12:19:03.747Z,5.23
2018-04-16T12:21:30.198Z,5.63
2018-04-16T12:23:56.541Z,5.50
2018-04-16T12:26:23.232Z,5.43
2018-04-16T12:28:50.075Z,4.97
2018-04-16T12:31:16.413Z,5.10
2018-04-16T12:33:43.002Z,4.60
2018-04-16T12:36:09.529Z,4.63
2018-04-16T12:38:36.114Z,5.03
2018-04-16T12:41:02.526Z,4.50
2018-04-16T12:43:28.931Z,4.60
2018-04-16T12:45:55.274Z,4.93
2018-04-16T12:48:21.624Z,4.90
2018-04-16T12:50:47.958Z,4.53
2018-04-16T12:53:14.310Z,5.10
2018-04-16T12:55:40.692Z,4.80
2018-04-16T12:58:07.062Z,4.77
2018-04-16T13:00:33.414Z,4.80
2018-04-16T13:02:59.755Z,4.90
2018-04-16T13:05:26.153Z,5.00
2018-04-16T13:07:52.546Z,5.07
2018-04-16T13:10:18.907Z,4.90
2018-04-16T13:12:45.241Z,4.83
2018-04-16T13:15:11.595Z,4.83
2018-04-16T13:17:37.970Z,5.07
2018-04-16T13:20:04.392Z,5.60
2018-04-16T13:22:30.705Z,5.20
2018-04-16T13:24:57.263Z,5.40
2018-04-16T13:27:23.615Z,4.97
2018-04-16T13:29:49.950Z,5.00
2018-04-16T13:32:16.317Z,4.77
2018-04-16T13:34:42.733Z,5.10
2018-04-16T13:37:09.110Z,5.07
2018-04-16T13:39:35.650Z,5.77
2018-04-16T13:42:02.092Z,5.07
2018-04-16T13:44:28.457Z,4.83
2018-04-16T13:46:54.823Z,5.07
2018-04-16T13:49:21.206Z,5.17
2018-04-16T13:51:47.562Z,4.93
2018-04-16T13:54:13.918Z,5.43
2018-04-16T13:56:40.305Z,4.77
2018-04-16T13:59:06.670Z,4.90
2018-04-16T14:01:33.012Z,4.63
2018-04-16T14:03:59.366Z,4.93
2018-04-16T14:06:25.854Z,5.03
2018-04-16T14:08:52.342Z,4.87
2018-04-16T14:11:18.713Z,5.43
2018-04-16T14:13:45.202Z,4.70
2018-04-16T14:16:11.602Z,5.27
2018-04-16T14:18:37.946Z,5.07
2018-04-16T14:21:04.454Z,4.53
2018-04-16T14:23:30.829Z,4.67
2018-04-16T14:25:57.352Z,4.43
2018-04-16T14:28:23.901Z,4.70
2018-04-16T14:30:50.429Z,3.97
2018-04-16T14:33:16.700Z,4.97
2018-04-16T14:35:43.058Z,4.70
2018-04-16T14:38:09.434Z,4.87
2018-04-16T14:40:35.790Z,4.40
2018-04-16T14:43:02.143Z,5.27
2018-04-16T14:45:28.581Z,4.87
2018-04-16T14:47:55.015Z,4.47
2018-04-16T14:50:21.448Z,4.53
2018-04-16T14:52:47.929Z,4.73
2018-04-16T14:55:14.323Z,4.23
2018-04-16T14:57:41.340Z,4.33
2018-04-16T15:00:07.822Z,4.10
2018-04-16T15:02:34.097Z,4.87
2018-04-16T15:05:00.527Z,5.20
2018-04-16T15:07:26.811Z,4.57
2018-04-16T15:09:53.142Z,4.40
2018-04-16T15:12:19.506Z,4.77
2018-04-16T15:14:45.917Z,4.43
2018-04-16T15:17:12.290Z,4.20
2018-04-16T15:19:38.717Z,4.07
2018-04-16T15:22:05.125Z,4.37
2018-04-16T15:24:31.510Z,4.10
2018-04-16T15:26:57.878Z,4.07
2018-04-16T15:29:24.257Z,4.20
2018-04-16T15:31:50.611Z,4.00
2018-04-16T15:34:16.990Z,4.57
2018-04-16T15:36:43.354Z,5.20
2018-04-16T15:39:09.724Z,4.27
2018-04-16T15:41:36.163Z,5.10
2018-04-16T15:44:02.653Z,4.77
2018-04-16T15:46:29.001Z,6.17
2018-04-16T15:48:55.371Z,7.20
2018-04-16T15:51:21.721Z,7.20
2018-04-16T15:53:48.053Z,7.47
2018-04-16T15:56:14.432Z,7.23
2018-04-16T15:58:40.814Z,6.20
2018-04-16T16:01:07.094Z,5.50
2018-04-16T16:03:33.546Z,5.97
2018-04-16T16:05:59.926Z,5.93
2018-04-16T16:08:26.293Z,5.47
2018-04-16T16:10:52.571Z,6.30
2018-04-16T16:13:18.851Z,5.87
2018-04-16T16:15:45.118Z,7.70
2018-04-16T16:18:11.413Z,5.00
2018-04-16T16:20:37.745Z,4.47
2018-04-16T16:23:04.134Z,4.50
2018-04-16T16:25:30.507Z,4.60
2018-04-16T16:27:57.498Z,5.07
2018-04-16T16:30:24.524Z,4.80
2018-04-16T16:32:51.054Z,4.97
2018-04-16T16:35:17.362Z,5.63
2018-04-16T16:37:43.622Z,5.70
2018-04-16T16:40:09.880Z,6.10
2018-04-16T16:42:36.317Z,5.70
2018-04-16T16:45:02.630Z,5.80
2018-04-16T16:47:28.974Z,5.00
2018-04-16T16:49:55.330Z,5.50
2018-04-16T16:52:21.662Z,6.07
2018-04-16T16:54:47.952Z,6.20
2018-04-16T16:57:14.225Z,5.87
2018-04-16T16:59:40.655Z,6.30
2018-04-16T17:02:06.935Z,6.50
2018-04-16T17:04:33.210Z,6.50
2018-04-16T17:06:59.474Z,6.00
2018-04-16T17:09:25.753Z,6.10
2018-04-16T17:11:52.084Z,5.73
2018-04-16T17:14:18.401Z,7.10
2018-04-16T17:16:44.693Z,7.17
2018-04-16T17:19:10.948Z,7.80
2018-04-16T17:21:37.597Z,7.20
2018-04-16T17:24:03.902Z,6.77
2018-04-16T17:26:30.205Z,6.70
2018-04-16T17:28:56.582Z,8.03
2018-04-16T17:31:22.896Z,7.97
2018-04-16T17:33:49.161Z,7.80
2018-04-16T17:36:15.424Z,8.10
2018-04-16T17:38:41.699Z,7.60
2018-04-16T17:41:07.978Z,6.63
2018-04-16T17:43:34.273Z,6.83
2018-04-16T17:46:00.550Z,7.00
2018-04-16T17:48:26.802Z,7.83
2018-04-16T17:50:53.089Z,7.20
2018-04-16T17:53:19.342Z,8.37
2018-04-16T17:55:45.614Z,7.40
2018-04-16T17:58:11.910Z,7.87
2018-04-16T18:00:38.169Z,6.97
2018-04-16T18:03:04.524Z,7.60
2018-04-16T18:05:30.829Z,6.80
2018-04-16T18:07:57.084Z,6.27
2018-04-16T18:10:23.415Z,7.03
2018-04-16T18:12:49.873Z,7.40
2018-04-16T18:15:16.179Z,6.87
2018-04-16T18:17:42.511Z,7.07
2018-04-16T18:20:08.818Z,6.50
2018-04-16T18:22:35.091Z,6.07
2018-04-16T18:25:01.585Z,6.03
2018-04-16T18:27:27.906Z,5.50
2018-04-16T18:29:54.161Z,5.97
2018-04-16T18:32:21.150Z,6.13
2018-04-16T18:34:47.459Z,6.43
2018-04-16T18:37:13.755Z,6.33
2018-04-16T18:39:40.041Z,6.60
2018-04-16T18:42:06.435Z,8.33
2018-04-16T18:44:32.689Z,7.60
2018-04-16T18:46:58.973Z,7.63
2018-04-16T18:49:25.249Z,7.67
2018-04-16T18:51:51.556Z,7.33
2018-04-16T18:54:18.053Z,7.93
2018-04-16T18:56:44.391Z,8.00
2018-04-16T18:59:10.702Z,7.40
2018-04-16T19:01:36.969Z,7.53
2018-04-16T19:04:03.299Z,7.30
2018-04-16T19:06:29.951Z,7.70
2018-04-16T19:08:56.283Z,7.93
2018-04-16T19:11:22.541Z,7.93
2018-04-16T19:13:48.837Z,7.97
2018-04-16T19:16:15.098Z,8.57
2018-04-16T19:18:41.374Z,8.83
2018-04-16T19:21:13.798Z,7.77
2018-04-16T19:23:40.074Z,7.53
2018-04-16T19:26:06.353Z,8.10
2018-04-16T19:28:32.675Z,8.30
2018-04-16T19:30:58.971Z,8.73
2018-04-16T19:33:31.313Z,8.33
2018-04-16T19:35:57.633Z,8.77
2018-04-16T19:38:23.929Z,8.63
2018-04-16T19:40:50.282Z,8.50
2018-04-16T19:43:16.567Z,8.40
2018-04-16T19:45:42.842Z,8.70
2018-04-16T19:48:09.126Z,8.90
2018-04-16T19:50:35.404Z,9.43
2018-04-16T19:53:01.678Z,8.90
2018-04-16T19:55:28.003Z,8.00
2018-04-16T19:58:00.359Z,7.07
2018-04-16T20:00:26.625Z,6.77
2018-04-16T20:02:58.912Z,6.10
2018-04-16T20:05:25.304Z,6.40
2018-04-16T20:07:51.617Z,4.83
2018-04-16T20:10:17.879Z,5.20
2018-04-16T20:12:44.238Z,4.80
2018-04-16T20:15:10.492Z,4.90
2018-04-16T20:17:36.797Z,5.40
2018-04-16T20:20:03.102Z,5.30
2018-04-16T20:22:29.370Z,5.00
2018-04-16T20:24:55.641Z,4.70
2018-04-16T20:27:21.944Z,4.00
2018-04-16T20:29:48.221Z,4.47
2018-04-16T20:32:14.499Z,4.47
2018-04-16T20:34:40.910Z,6.07
2018-04-16T20:37:07.178Z,5.03
2018-04-16T20:39:33.442Z,4.87
2018-04-16T20:41:59.715Z,4.63
2018-04-16T20:44:26.002Z,4.80
2018-04-16T20:46:52.366Z,4.83
2018-04-16T20:49:18.792Z,4.47
2018-04-16T20:51:45.063Z,4.93
2018-04-16T20:54:11.456Z,4.60
2018-04-16T20:56:37.781Z,4.73
2018-04-16T20:59:04.494Z,4.10
2018-04-16T21:01:30.945Z,3.80
2018-04-16T21:03:57.205Z,3.80
2018-04-16T21:06:23.480Z,4.13
2018-04-16T21:08:49.751Z,4.70
2018-04-16T21:11:16.019Z,3.50
2018-04-16T21:13:42.279Z,3.67
2018-04-16T21:16:08.570Z,4.33
2018-04-16T21:18:34.835Z,4.40
2018-04-16T21:21:01.107Z,4.10
2018-04-16T21:23:27.345Z,3.70
2018-04-16T21:25:53.616Z,4.40
2018-04-16T21:28:19.866Z,4.07
2018-04-16T21:30:46.150Z,4.57
2018-04-16T21:33:12.445Z,3.87
2018-04-16T21:35:38.722Z,4.27
2018-04-16T21:38:04.989Z,4.03
2018-04-16T21:40:31.313Z,3.97
2018-04-16T21:42:57.582Z,4.17
2018-04-16T21:45:23.991Z,3.67
2018-04-16T21:47:50.241Z,4.07
2018-04-16T21:50:16.575Z,3.83
2018-04-16T21:52:42.891Z,4.13
2018-04-16T21:55:09.187Z,3.90
2018-04-16T21:57:35.474Z,3.67
2018-04-16T22:00:01.738Z,4.30
2018-04-16T22:02:28.028Z,3.80
2018-04-16T22:04:54.298Z,4.20
2018-04-16T22:07:20.567Z,4.27
2018-04-16T22:09:46.845Z,4.20
2018-04-16T22:12:13.223Z,4.30
2018-04-16T22:14:39.517Z,4.20
2018-04-16T22:17:05.866Z,4.23
2018-04-16T22:19:32.201Z,4.57
2018-04-16T22:21:58.625Z,4.33
2018-04-16T22:24:24.877Z,4.37
2018-04-16T22:26:51.193Z,3.97
2018-04-16T22:29:17.523Z,4.33
2018-04-16T22:31:43.877Z,4.70
2018-04-16T22:34:10.182Z,4.40
2018-04-16T22:36:36.465Z,4.60
2018-04-16T22:39:02.839Z,4.53
2018-04-16T22:41:29.152Z,4.57
2018-04-16T22:43:55.415Z,4.33
2018-04-16T22:46:21.685Z,4.80
2018-04-16T22:48:47.993Z,4.60
2018-04-16T22:51:14.266Z,4.53
2018-04-16T22:53:40.560Z,4.97
2018-04-16T22:56:06.841Z,4.43
2018-04-16T22:58:33.122Z,3.90
2018-04-16T23:00:59.540Z,4.03
2018-04-16T23:03:25.850Z,4.30
2018-04-16T23:05:52.182Z,4.70
2018-04-16T23:08:18.557Z,4.17
2018-04-16T23:10:44.877Z,4.47
2018-04-16T23:13:11.189Z,4.00
2018-04-16T23:15:37.525Z,4.30
2018-04-16T23:18:03.945Z,3.93
2018-04-16T23:20:30.270Z,4.20
2018-04-16T23:22:56.602Z,3.87
2018-04-16T23:25:22.934Z,3.87
2018-04-16T23:27:49.261Z,4.10
2018-04-16T23:30:15.597Z,3.43
2018-04-16T23:32:41.919Z,3.83
2018-04-16T23:35:08.265Z,4.07
2018-04-16T23:37:34.578Z,3.87
2018-04-16T23:40:00.914Z,4.43
2018-04-16T23:42:27.254Z,4.03
2018-04-16T23:44:53.570Z,3.70
2018-04-16T23:47:19.905Z,4.07
2018-04-16T23:49:46.368Z,3.83
2018-04-16T23:52:12.732Z,3.47
2018-04-16T23:54:39.046Z,3.70
2018-04-16T23:57:05.382Z,3.90
2018-04-16T23:59:31.710Z,3.40
